sensor_id;sensor_type;location;lat;lon;timestamp;P1;durP1;ratioP1;P2;durP2;ratioP2
52764;SDS011;38650;44.536;18.664;2024-01-11T00:02:23;49.70;;;29.27;;
52764;SDS011;38650;44.536;18.664;2024-01-11T00:04:49;51.47;;;30.58;;
52764;SDS011;38650;44.536;18.664;2024-01-11T00:07:15;60.53;;;33.55;;
52764;SDS011;38650;44.536;18.664;2024-01-11T00:09:41;50.42;;;29.70;;
52764;SDS011;38650;44.536;18.664;2024-01-11T00:12:08;47.80;;;29.30;;
52764;SDS011;38650;44.536;18.664;2024-01-11T00:14:34;55.80;;;33.03;;
52764;SDS011;38650;44.536;18.664;2024-01-11T00:17:00;75.03;;;44.60;;
52764;SDS011;38650;44.536;18.664;2024-01-11T00:19:26;70.83;;;42.97;;
52764;SDS011;38650;44.536;18.664;2024-01-11T00:21:52;85.75;;;48.22;;
52764;SDS011;38650;44.536;18.664;2024-01-11T00:24:18;82.97;;;46.60;;
52764;SDS011;38650;44.536;18.664;2024-01-11T00:26:44;72.67;;;42.80;;
52764;SDS011;38650;44.536;18.664;2024-01-11T00:29:10;64.23;;;38.17;;
52764;SDS011;38650;44.536;18.664;2024-01-11T00:31:36;64.45;;;38.75;;
52764;SDS011;38650;44.536;18.664;2024-01-11T00:34:03;69.67;;;40.53;;
52764;SDS011;38650;44.536;18.664;2024-01-11T00:36:28;62.23;;;39.17;;
52764;SDS011;38650;44.536;18.664;2024-01-11T00:38:54;64.87;;;37.47;;
52764;SDS011;38650;44.536;18.664;2024-01-11T00:41:20;60.30;;;35.43;;
52764;SDS011;38650;44.536;18.664;2024-01-11T00:43:46;62.55;;;35.85;;
52764;SDS011;38650;44.536;18.664;2024-01-11T00:46:12;56.37;;;32.57;;
52764;SDS011;38650;44.536;18.664;2024-01-11T00:48:37;56.93;;;33.57;;
52764;SDS011;38650;44.536;18.664;2024-01-11T00:51:04;53.87;;;30.30;;
52764;SDS011;38650;44.536;18.664;2024-01-11T00:53:30;49.85;;;28.15;;
52764;SDS011;38650;44.536;18.664;2024-01-11T00:55:57;48.57;;;29.70;;
52764;SDS011;38650;44.536;18.664;2024-01-11T00:58:22;49.53;;;29.90;;
52764;SDS011;38650;44.536;18.664;2024-01-11T01:00:48;52.33;;;30.60;;
52764;SDS011;38650;44.536;18.664;2024-01-11T01:03:14;49.60;;;28.50;;
52764;SDS011;38650;44.536;18.664;2024-01-11T01:05:41;43.03;;;25.73;;
52764;SDS011;38650;44.536;18.664;2024-01-11T01:08:07;43.88;;;26.63;;
52764;SDS011;38650;44.536;18.664;2024-01-11T01:10:33;42.07;;;24.73;;
52764;SDS011;38650;44.536;18.664;2024-01-11T01:12:58;58.30;;;34.57;;
52764;SDS011;38650;44.536;18.664;2024-01-11T01:15:24;45.53;;;26.77;;
52764;SDS011;38650;44.536;18.664;2024-01-11T01:17:50;37.57;;;22.83;;
52764;SDS011;38650;44.536;18.664;2024-01-11T01:20:15;43.53;;;26.60;;
52764;SDS011;38650;44.536;18.664;2024-01-11T01:22:41;40.00;;;23.70;;
52764;SDS011;38650;44.536;18.664;2024-01-11T01:25:07;39.07;;;23.23;;
52764;SDS011;38650;44.536;18.664;2024-01-11T01:27:33;43.63;;;26.20;;
52764;SDS011;38650;44.536;18.664;2024-01-11T01:29:58;43.40;;;26.43;;
52764;SDS011;38650;44.536;18.664;2024-01-11T01:32:24;40.13;;;25.33;;
52764;SDS011;38650;44.536;18.664;2024-01-11T01:34:50;44.20;;;25.57;;
52764;SDS011;38650;44.536;18.664;2024-01-11T01:37:15;37.97;;;22.67;;
52764;SDS011;38650;44.536;18.664;2024-01-11T01:39:41;38.73;;;23.27;;
52764;SDS011;38650;44.536;18.664;2024-01-11T01:42:07;38.60;;;23.83;;
52764;SDS011;38650;44.536;18.664;2024-01-11T01:44:33;37.60;;;24.00;;
52764;SDS011;38650;44.536;18.664;2024-01-11T01:46:59;37.43;;;22.80;;
52764;SDS011;38650;44.536;18.664;2024-01-11T01:49:27;37.07;;;21.27;;
52764;SDS011;38650;44.536;18.664;2024-01-11T01:51:53;38.40;;;23.60;;
52764;SDS011;38650;44.536;18.664;2024-01-11T01:54:19;38.97;;;24.20;;
52764;SDS011;38650;44.536;18.664;2024-01-11T01:56:47;44.30;;;26.30;;
52764;SDS011;38650;44.536;18.664;2024-01-11T01:59:13;42.67;;;27.40;;
52764;SDS011;38650;44.536;18.664;2024-01-11T02:01:40;44.40;;;26.93;;
52764;SDS011;38650;44.536;18.664;2024-01-11T02:04:06;46.30;;;25.07;;
52764;SDS011;38650;44.536;18.664;2024-01-11T02:06:32;38.53;;;24.27;;
52764;SDS011;38650;44.536;18.664;2024-01-11T02:08:59;37.00;;;24.93;;
52764;SDS011;38650;44.536;18.664;2024-01-11T02:11:28;58.10;;;33.43;;
52764;SDS011;38650;44.536;18.664;2024-01-11T02:13:54;47.87;;;26.87;;
52764;SDS011;38650;44.536;18.664;2024-01-11T02:16:20;49.60;;;29.63;;
52764;SDS011;38650;44.536;18.664;2024-01-11T02:18:46;64.43;;;37.93;;
52764;SDS011;38650;44.536;18.664;2024-01-11T02:21:13;64.17;;;36.93;;
52764;SDS011;38650;44.536;18.664;2024-01-11T02:23:42;80.60;;;45.73;;
52764;SDS011;38650;44.536;18.664;2024-01-11T02:26:14;60.13;;;36.43;;
52764;SDS011;38650;44.536;18.664;2024-01-11T02:28:46;58.80;;;33.77;;
52764;SDS011;38650;44.536;18.664;2024-01-11T02:31:15;52.60;;;30.73;;
52764;SDS011;38650;44.536;18.664;2024-01-11T02:33:41;48.07;;;29.47;;
52764;SDS011;38650;44.536;18.664;2024-01-11T02:36:07;54.23;;;32.00;;
52764;SDS011;38650;44.536;18.664;2024-01-11T02:38:33;60.07;;;33.57;;
52764;SDS011;38650;44.536;18.664;2024-01-11T02:41:00;50.20;;;29.80;;
52764;SDS011;38650;44.536;18.664;2024-01-11T02:43:26;48.40;;;28.13;;
52764;SDS011;38650;44.536;18.664;2024-01-11T02:45:55;47.80;;;27.93;;
52764;SDS011;38650;44.536;18.664;2024-01-11T02:48:21;43.03;;;25.57;;
52764;SDS011;38650;44.536;18.664;2024-01-11T02:50:48;39.40;;;24.07;;
52764;SDS011;38650;44.536;18.664;2024-01-11T02:53:14;36.50;;;23.20;;
52764;SDS011;38650;44.536;18.664;2024-01-11T02:55:39;39.70;;;22.53;;
52764;SDS011;38650;44.536;18.664;2024-01-11T02:58:05;35.63;;;20.73;;
52764;SDS011;38650;44.536;18.664;2024-01-11T03:00:31;41.67;;;25.17;;
52764;SDS011;38650;44.536;18.664;2024-01-11T03:02:56;38.07;;;22.90;;
52764;SDS011;38650;44.536;18.664;2024-01-11T03:05:22;31.80;;;20.33;;
52764;SDS011;38650;44.536;18.664;2024-01-11T03:07:48;31.60;;;19.87;;
52764;SDS011;38650;44.536;18.664;2024-01-11T03:10:13;35.27;;;22.53;;
52764;SDS011;38650;44.536;18.664;2024-01-11T03:12:39;30.50;;;18.97;;
52764;SDS011;38650;44.536;18.664;2024-01-11T03:15:05;36.13;;;21.97;;
52764;SDS011;38650;44.536;18.664;2024-01-11T03:17:31;33.27;;;20.83;;
52764;SDS011;38650;44.536;18.664;2024-01-11T03:19:57;29.30;;;17.70;;
52764;SDS011;38650;44.536;18.664;2024-01-11T03:22:24;29.40;;;18.80;;
52764;SDS011;38650;44.536;18.664;2024-01-11T03:24:50;25.33;;;15.80;;
52764;SDS011;38650;44.536;18.664;2024-01-11T03:27:16;28.10;;;16.70;;
52764;SDS011;38650;44.536;18.664;2024-01-11T03:29:41;28.67;;;17.10;;
52764;SDS011;38650;44.536;18.664;2024-01-11T03:32:07;26.80;;;17.03;;
52764;SDS011;38650;44.536;18.664;2024-01-11T03:34:33;32.47;;;20.17;;
52764;SDS011;38650;44.536;18.664;2024-01-11T03:36:58;33.30;;;21.67;;
52764;SDS011;38650;44.536;18.664;2024-01-11T03:39:25;29.10;;;19.37;;
52764;SDS011;38650;44.536;18.664;2024-01-11T03:41:50;27.13;;;16.03;;
52764;SDS011;38650;44.536;18.664;2024-01-11T03:44:16;28.10;;;16.67;;
52764;SDS011;38650;44.536;18.664;2024-01-11T03:46:42;25.43;;;16.70;;
52764;SDS011;38650;44.536;18.664;2024-01-11T03:49:07;22.73;;;14.70;;
52764;SDS011;38650;44.536;18.664;2024-01-11T03:51:34;27.23;;;17.20;;
52764;SDS011;38650;44.536;18.664;2024-01-11T03:53:59;23.27;;;14.33;;
52764;SDS011;38650;44.536;18.664;2024-01-11T03:56:25;21.75;;;12.93;;
52764;SDS011;38650;44.536;18.664;2024-01-11T03:58:51;22.10;;;14.70;;
52764;SDS011;38650;44.536;18.664;2024-01-11T04:01:16;21.70;;;13.87;;
52764;SDS011;38650;44.536;18.664;2024-01-11T04:03:42;19.73;;;13.02;;
52764;SDS011;38650;44.536;18.664;2024-01-11T04:06:08;24.92;;;15.60;;
52764;SDS011;38650;44.536;18.664;2024-01-11T04:08:33;20.47;;;13.40;;
52764;SDS011;38650;44.536;18.664;2024-01-11T04:11:01;20.67;;;14.03;;
52764;SDS011;38650;44.536;18.664;2024-01-11T04:13:29;18.03;;;12.13;;
52764;SDS011;38650;44.536;18.664;2024-01-11T04:15:54;22.95;;;15.82;;
52764;SDS011;38650;44.536;18.664;2024-01-11T04:18:20;16.93;;;12.57;;
52764;SDS011;38650;44.536;18.664;2024-01-11T04:20:46;21.60;;;14.60;;
52764;SDS011;38650;44.536;18.664;2024-01-11T04:23:11;29.40;;;18.40;;
52764;SDS011;38650;44.536;18.664;2024-01-11T04:25:37;27.30;;;16.90;;
52764;SDS011;38650;44.536;18.664;2024-01-11T04:28:03;27.13;;;18.30;;
52764;SDS011;38650;44.536;18.664;2024-01-11T04:30:29;25.48;;;16.83;;
52764;SDS011;38650;44.536;18.664;2024-01-11T04:32:54;23.30;;;15.03;;
52764;SDS011;38650;44.536;18.664;2024-01-11T04:35:20;20.13;;;14.30;;
52764;SDS011;38650;44.536;18.664;2024-01-11T04:37:46;25.88;;;16.42;;
52764;SDS011;38650;44.536;18.664;2024-01-11T04:40:11;19.48;;;13.02;;
52764;SDS011;38650;44.536;18.664;2024-01-11T04:42:37;20.98;;;14.35;;
52764;SDS011;38650;44.536;18.664;2024-01-11T04:45:03;14.95;;;11.05;;
52764;SDS011;38650;44.536;18.664;2024-01-11T04:47:30;22.37;;;14.03;;
52764;SDS011;38650;44.536;18.664;2024-01-11T04:49:55;28.77;;;16.73;;
52764;SDS011;38650;44.536;18.664;2024-01-11T04:52:21;22.50;;;14.98;;
52764;SDS011;38650;44.536;18.664;2024-01-11T04:54:47;28.07;;;17.70;;
52764;SDS011;38650;44.536;18.664;2024-01-11T04:57:12;21.13;;;13.70;;
52764;SDS011;38650;44.536;18.664;2024-01-11T04:59:38;17.35;;;11.88;;
52764;SDS011;38650;44.536;18.664;2024-01-11T05:02:04;17.70;;;12.80;;
52764;SDS011;38650;44.536;18.664;2024-01-11T05:04:29;18.93;;;13.10;;
52764;SDS011;38650;44.536;18.664;2024-01-11T05:06:55;23.57;;;15.10;;
52764;SDS011;38650;44.536;18.664;2024-01-11T05:09:21;27.83;;;18.33;;
52764;SDS011;38650;44.536;18.664;2024-01-11T05:11:47;18.47;;;13.23;;
52764;SDS011;38650;44.536;18.664;2024-01-11T05:14:12;21.63;;;14.07;;
52764;SDS011;38650;44.536;18.664;2024-01-11T05:16:38;28.13;;;17.50;;
52764;SDS011;38650;44.536;18.664;2024-01-11T05:19:04;20.63;;;14.73;;
52764;SDS011;38650;44.536;18.664;2024-01-11T05:21:30;19.15;;;12.57;;
52764;SDS011;38650;44.536;18.664;2024-01-11T05:23:55;22.45;;;13.80;;
52764;SDS011;38650;44.536;18.664;2024-01-11T05:26:21;21.92;;;13.70;;
52764;SDS011;38650;44.536;18.664;2024-01-11T05:28:47;20.27;;;13.10;;
52764;SDS011;38650;44.536;18.664;2024-01-11T05:31:13;22.30;;;15.32;;
52764;SDS011;38650;44.536;18.664;2024-01-11T05:33:40;21.20;;;14.27;;
52764;SDS011;38650;44.536;18.664;2024-01-11T05:36:06;20.25;;;12.77;;
52764;SDS011;38650;44.536;18.664;2024-01-11T05:38:33;22.48;;;13.98;;
52764;SDS011;38650;44.536;18.664;2024-01-11T05:40:59;20.10;;;12.65;;
52764;SDS011;38650;44.536;18.664;2024-01-11T05:43:25;21.70;;;14.37;;
52764;SDS011;38650;44.536;18.664;2024-01-11T05:45:51;20.77;;;14.30;;
52764;SDS011;38650;44.536;18.664;2024-01-11T05:48:17;23.38;;;14.88;;
52764;SDS011;38650;44.536;18.664;2024-01-11T05:50:43;22.50;;;14.90;;
52764;SDS011;38650;44.536;18.664;2024-01-11T05:53:09;25.02;;;16.65;;
52764;SDS011;38650;44.536;18.664;2024-01-11T05:55:35;20.80;;;13.73;;
52764;SDS011;38650;44.536;18.664;2024-01-11T05:58:01;26.95;;;17.85;;
52764;SDS011;38650;44.536;18.664;2024-01-11T06:00:27;20.85;;;13.27;;
52764;SDS011;38650;44.536;18.664;2024-01-11T06:02:53;18.38;;;12.43;;
52764;SDS011;38650;44.536;18.664;2024-01-11T06:05:18;17.42;;;11.98;;
52764;SDS011;38650;44.536;18.664;2024-01-11T06:07:44;21.27;;;13.35;;
52764;SDS011;38650;44.536;18.664;2024-01-11T06:10:10;21.45;;;13.68;;
52764;SDS011;38650;44.536;18.664;2024-01-11T06:12:36;22.95;;;15.80;;
52764;SDS011;38650;44.536;18.664;2024-01-11T06:15:02;27.75;;;17.65;;
52764;SDS011;38650;44.536;18.664;2024-01-11T06:17:28;39.13;;;21.70;;
52764;SDS011;38650;44.536;18.664;2024-01-11T06:19:53;30.27;;;18.63;;
52764;SDS011;38650;44.536;18.664;2024-01-11T06:22:20;27.83;;;16.65;;
52764;SDS011;38650;44.536;18.664;2024-01-11T06:24:46;23.98;;;15.45;;
52764;SDS011;38650;44.536;18.664;2024-01-11T06:27:12;24.63;;;15.43;;
52764;SDS011;38650;44.536;18.664;2024-01-11T06:29:37;21.88;;;14.40;;
52764;SDS011;38650;44.536;18.664;2024-01-11T06:32:04;22.73;;;14.15;;
52764;SDS011;38650;44.536;18.664;2024-01-11T06:34:30;19.60;;;13.60;;
52764;SDS011;38650;44.536;18.664;2024-01-11T06:36:55;23.65;;;14.95;;
52764;SDS011;38650;44.536;18.664;2024-01-11T06:39:21;19.83;;;13.27;;
52764;SDS011;38650;44.536;18.664;2024-01-11T06:41:47;25.30;;;15.48;;
52764;SDS011;38650;44.536;18.664;2024-01-11T06:44:12;24.17;;;15.43;;
52764;SDS011;38650;44.536;18.664;2024-01-11T06:46:39;22.38;;;13.88;;
52764;SDS011;38650;44.536;18.664;2024-01-11T06:49:06;19.77;;;13.45;;
52764;SDS011;38650;44.536;18.664;2024-01-11T06:51:32;20.42;;;14.27;;
52764;SDS011;38650;44.536;18.664;2024-01-11T06:53:58;26.48;;;17.10;;
52764;SDS011;38650;44.536;18.664;2024-01-11T06:56:26;22.42;;;14.82;;
52764;SDS011;38650;44.536;18.664;2024-01-11T06:58:52;37.90;;;23.10;;
52764;SDS011;38650;44.536;18.664;2024-01-11T07:01:19;30.77;;;18.42;;
52764;SDS011;38650;44.536;18.664;2024-01-11T07:03:45;28.50;;;19.83;;
52764;SDS011;38650;44.536;18.664;2024-01-11T07:06:11;27.67;;;18.13;;
52764;SDS011;38650;44.536;18.664;2024-01-11T07:08:37;28.70;;;18.52;;
52764;SDS011;38650;44.536;18.664;2024-01-11T07:11:02;33.65;;;21.58;;
52764;SDS011;38650;44.536;18.664;2024-01-11T07:13:31;31.95;;;21.20;;
52764;SDS011;38650;44.536;18.664;2024-01-11T07:15:57;30.77;;;20.60;;
52764;SDS011;38650;44.536;18.664;2024-01-11T07:18:24;30.77;;;19.92;;
52764;SDS011;38650;44.536;18.664;2024-01-11T07:20:50;38.22;;;24.13;;
52764;SDS011;38650;44.536;18.664;2024-01-11T07:23:16;34.47;;;22.02;;
52764;SDS011;38650;44.536;18.664;2024-01-11T07:25:42;33.42;;;21.15;;
52764;SDS011;38650;44.536;18.664;2024-01-11T07:28:08;48.70;;;32.03;;
52764;SDS011;38650;44.536;18.664;2024-01-11T07:30:34;34.30;;;22.00;;
52764;SDS011;38650;44.536;18.664;2024-01-11T07:32:59;33.65;;;21.67;;
52764;SDS011;38650;44.536;18.664;2024-01-11T07:35:25;53.47;;;32.15;;
52764;SDS011;38650;44.536;18.664;2024-01-11T07:37:51;34.15;;;21.95;;
52764;SDS011;38650;44.536;18.664;2024-01-11T07:40:17;35.13;;;21.95;;
52764;SDS011;38650;44.536;18.664;2024-01-11T07:42:43;33.13;;;20.38;;
52764;SDS011;38650;44.536;18.664;2024-01-11T07:45:09;29.42;;;18.08;;
52764;SDS011;38650;44.536;18.664;2024-01-11T07:47:39;29.98;;;18.63;;
52764;SDS011;38650;44.536;18.664;2024-01-11T07:50:05;36.72;;;21.58;;
52764;SDS011;38650;44.536;18.664;2024-01-11T07:52:35;30.25;;;20.42;;
52764;SDS011;38650;44.536;18.664;2024-01-11T07:55:06;30.73;;;19.27;;
52764;SDS011;38650;44.536;18.664;2024-01-11T07:57:35;30.25;;;20.52;;
52764;SDS011;38650;44.536;18.664;2024-01-11T08:00:02;32.88;;;21.13;;
52764;SDS011;38650;44.536;18.664;2024-01-11T08:02:31;35.90;;;23.05;;
52764;SDS011;38650;44.536;18.664;2024-01-11T08:04:58;21.80;;;15.23;;
52764;SDS011;38650;44.536;18.664;2024-01-11T08:07:27;24.83;;;15.43;;
52764;SDS011;38650;44.536;18.664;2024-01-11T08:09:53;38.05;;;25.10;;
52764;SDS011;38650;44.536;18.664;2024-01-11T08:12:19;29.80;;;18.80;;
52764;SDS011;38650;44.536;18.664;2024-01-11T08:14:45;27.23;;;18.27;;
52764;SDS011;38650;44.536;18.664;2024-01-11T08:17:14;23.33;;;16.23;;
52764;SDS011;38650;44.536;18.664;2024-01-11T08:19:40;24.65;;;16.42;;
52764;SDS011;38650;44.536;18.664;2024-01-11T08:22:10;23.40;;;15.27;;
52764;SDS011;38650;44.536;18.664;2024-01-11T08:24:36;32.55;;;18.88;;
52764;SDS011;38650;44.536;18.664;2024-01-11T08:27:03;21.30;;;14.63;;
52764;SDS011;38650;44.536;18.664;2024-01-11T08:29:29;24.48;;;15.85;;
52764;SDS011;38650;44.536;18.664;2024-01-11T08:31:55;24.88;;;17.48;;
52764;SDS011;38650;44.536;18.664;2024-01-11T08:34:21;24.35;;;15.82;;
52764;SDS011;38650;44.536;18.664;2024-01-11T08:36:48;36.58;;;22.25;;
52764;SDS011;38650;44.536;18.664;2024-01-11T08:39:14;32.80;;;19.65;;
52764;SDS011;38650;44.536;18.664;2024-01-11T08:41:40;27.73;;;18.33;;
52764;SDS011;38650;44.536;18.664;2024-01-11T08:44:05;23.63;;;15.30;;
52764;SDS011;38650;44.536;18.664;2024-01-11T08:46:31;20.15;;;14.68;;
52764;SDS011;38650;44.536;18.664;2024-01-11T08:49:01;22.92;;;15.57;;
52764;SDS011;38650;44.536;18.664;2024-01-11T08:51:30;23.52;;;15.35;;
52764;SDS011;38650;44.536;18.664;2024-01-11T08:53:57;22.75;;;13.88;;
52764;SDS011;38650;44.536;18.664;2024-01-11T08:56:23;18.70;;;13.57;;
52764;SDS011;38650;44.536;18.664;2024-01-11T08:58:49;27.55;;;16.63;;
52764;SDS011;38650;44.536;18.664;2024-01-11T09:01:15;22.13;;;14.20;;
52764;SDS011;38650;44.536;18.664;2024-01-11T09:03:41;24.80;;;15.02;;
52764;SDS011;38650;44.536;18.664;2024-01-11T09:06:06;28.67;;;19.02;;
52764;SDS011;38650;44.536;18.664;2024-01-11T09:08:32;23.33;;;15.07;;
52764;SDS011;38650;44.536;18.664;2024-01-11T09:10:59;26.77;;;17.33;;
52764;SDS011;38650;44.536;18.664;2024-01-11T09:13:35;34.85;;;20.35;;
52764;SDS011;38650;44.536;18.664;2024-01-11T09:16:01;22.55;;;14.65;;
52764;SDS011;38650;44.536;18.664;2024-01-11T09:18:27;24.85;;;17.13;;
52764;SDS011;38650;44.536;18.664;2024-01-11T09:20:53;37.17;;;22.30;;
52764;SDS011;38650;44.536;18.664;2024-01-11T09:23:18;25.98;;;17.83;;
52764;SDS011;38650;44.536;18.664;2024-01-11T09:25:44;54.05;;;30.85;;
52764;SDS011;38650;44.536;18.664;2024-01-11T09:28:10;32.47;;;20.33;;
52764;SDS011;38650;44.536;18.664;2024-01-11T09:30:35;31.52;;;20.75;;
52764;SDS011;38650;44.536;18.664;2024-01-11T09:33:01;27.05;;;18.13;;
52764;SDS011;38650;44.536;18.664;2024-01-11T09:35:28;30.20;;;19.17;;
52764;SDS011;38650;44.536;18.664;2024-01-11T09:37:53;30.00;;;19.45;;
52764;SDS011;38650;44.536;18.664;2024-01-11T09:40:19;25.92;;;16.77;;
52764;SDS011;38650;44.536;18.664;2024-01-11T09:42:45;21.20;;;14.98;;
52764;SDS011;38650;44.536;18.664;2024-01-11T09:45:14;22.88;;;15.70;;
52764;SDS011;38650;44.536;18.664;2024-01-11T09:47:41;24.38;;;16.80;;
52764;SDS011;38650;44.536;18.664;2024-01-11T09:50:07;29.13;;;19.33;;
52764;SDS011;38650;44.536;18.664;2024-01-11T09:52:33;27.38;;;17.83;;
52764;SDS011;38650;44.536;18.664;2024-01-11T09:54:59;19.83;;;14.88;;
52764;SDS011;38650;44.536;18.664;2024-01-11T09:57:29;22.13;;;14.65;;
52764;SDS011;38650;44.536;18.664;2024-01-11T09:59:57;23.55;;;15.68;;
52764;SDS011;38650;44.536;18.664;2024-01-11T10:02:23;21.98;;;14.82;;
52764;SDS011;38650;44.536;18.664;2024-01-11T10:04:53;19.55;;;14.48;;
52764;SDS011;38650;44.536;18.664;2024-01-11T10:07:22;17.42;;;11.98;;
52764;SDS011;38650;44.536;18.664;2024-01-11T10:09:49;23.92;;;16.77;;
52764;SDS011;38650;44.536;18.664;2024-01-11T10:12:20;22.27;;;15.73;;
52764;SDS011;38650;44.536;18.664;2024-01-11T10:14:48;20.77;;;13.73;;
52764;SDS011;38650;44.536;18.664;2024-01-11T10:17:14;23.13;;;15.45;;
52764;SDS011;38650;44.536;18.664;2024-01-11T10:19:40;22.23;;;16.33;;
52764;SDS011;38650;44.536;18.664;2024-01-11T10:22:05;29.58;;;21.23;;
52764;SDS011;38650;44.536;18.664;2024-01-11T10:24:32;37.42;;;26.67;;
52764;SDS011;38650;44.536;18.664;2024-01-11T10:26:57;30.45;;;22.10;;
52764;SDS011;38650;44.536;18.664;2024-01-11T10:29:35;25.92;;;18.73;;
52764;SDS011;38650;44.536;18.664;2024-01-11T10:32:04;31.17;;;22.65;;
52764;SDS011;38650;44.536;18.664;2024-01-11T10:34:30;28.83;;;21.48;;
52764;SDS011;38650;44.536;18.664;2024-01-11T10:36:56;33.47;;;23.42;;
52764;SDS011;38650;44.536;18.664;2024-01-11T10:39:25;26.80;;;20.23;;
52764;SDS011;38650;44.536;18.664;2024-01-11T10:41:52;30.00;;;19.77;;
52764;SDS011;38650;44.536;18.664;2024-01-11T10:44:29;32.72;;;22.05;;
52764;SDS011;38650;44.536;18.664;2024-01-11T10:46:58;41.05;;;26.90;;
52764;SDS011;38650;44.536;18.664;2024-01-11T10:49:27;35.05;;;24.50;;
52764;SDS011;38650;44.536;18.664;2024-01-11T10:52:04;31.55;;;21.35;;
52764;SDS011;38650;44.536;18.664;2024-01-11T10:54:35;29.55;;;19.65;;
52764;SDS011;38650;44.536;18.664;2024-01-11T10:57:02;30.45;;;21.10;;
52764;SDS011;38650;44.536;18.664;2024-01-11T10:59:31;24.88;;;17.92;;
52764;SDS011;38650;44.536;18.664;2024-01-11T11:01:57;23.15;;;16.88;;
52764;SDS011;38650;44.536;18.664;2024-01-11T11:04:25;24.17;;;17.70;;
52764;SDS011;38650;44.536;18.664;2024-01-11T11:06:54;24.95;;;17.98;;
52764;SDS011;38650;44.536;18.664;2024-01-11T11:09:24;27.80;;;20.30;;
52764;SDS011;38650;44.536;18.664;2024-01-11T11:11:50;31.67;;;19.27;;
52764;SDS011;38650;44.536;18.664;2024-01-11T11:14:21;24.20;;;18.08;;
52764;SDS011;38650;44.536;18.664;2024-01-11T11:16:47;29.27;;;18.50;;
52764;SDS011;38650;44.536;18.664;2024-01-11T11:19:14;21.15;;;15.90;;
52764;SDS011;38650;44.536;18.664;2024-01-11T11:21:43;21.73;;;15.82;;
52764;SDS011;38650;44.536;18.664;2024-01-11T11:24:12;26.25;;;17.90;;
52764;SDS011;38650;44.536;18.664;2024-01-11T11:26:38;28.45;;;18.00;;
52764;SDS011;38650;44.536;18.664;2024-01-11T11:29:04;26.10;;;18.80;;
52764;SDS011;38650;44.536;18.664;2024-01-11T11:31:42;24.33;;;17.15;;
52764;SDS011;38650;44.536;18.664;2024-01-11T11:34:13;23.05;;;16.92;;
52764;SDS011;38650;44.536;18.664;2024-01-11T11:36:39;31.40;;;19.52;;
52764;SDS011;38650;44.536;18.664;2024-01-11T11:39:09;27.27;;;18.50;;
52764;SDS011;38650;44.536;18.664;2024-01-11T11:41:36;31.50;;;21.05;;
52764;SDS011;38650;44.536;18.664;2024-01-11T11:44:04;29.85;;;19.52;;
52764;SDS011;38650;44.536;18.664;2024-01-11T11:46:30;30.95;;;20.63;;
52764;SDS011;38650;44.536;18.664;2024-01-11T11:48:56;31.52;;;21.50;;
52764;SDS011;38650;44.536;18.664;2024-01-11T11:51:23;26.23;;;18.13;;
52764;SDS011;38650;44.536;18.664;2024-01-11T11:53:50;25.88;;;17.52;;
52764;SDS011;38650;44.536;18.664;2024-01-11T11:56:17;27.73;;;18.67;;
52764;SDS011;38650;44.536;18.664;2024-01-11T11:58:45;19.83;;;14.07;;
52764;SDS011;38650;44.536;18.664;2024-01-11T12:01:11;21.35;;;14.98;;
52764;SDS011;38650;44.536;18.664;2024-01-11T12:03:40;22.95;;;15.52;;
52764;SDS011;38650;44.536;18.664;2024-01-11T12:06:07;26.00;;;18.08;;
52764;SDS011;38650;44.536;18.664;2024-01-11T12:08:35;25.67;;;17.77;;
52764;SDS011;38650;44.536;18.664;2024-01-11T12:11:01;25.23;;;17.15;;
52764;SDS011;38650;44.536;18.664;2024-01-11T12:13:28;22.77;;;15.50;;
52764;SDS011;38650;44.536;18.664;2024-01-11T12:15:55;22.58;;;16.45;;
52764;SDS011;38650;44.536;18.664;2024-01-11T12:18:21;29.15;;;19.42;;
52764;SDS011;38650;44.536;18.664;2024-01-11T12:20:47;25.27;;;16.98;;
52764;SDS011;38650;44.536;18.664;2024-01-11T12:23:12;32.55;;;20.95;;
52764;SDS011;38650;44.536;18.664;2024-01-11T12:25:41;27.02;;;18.73;;
52764;SDS011;38650;44.536;18.664;2024-01-11T12:28:07;26.38;;;17.23;;
52764;SDS011;38650;44.536;18.664;2024-01-11T12:30:33;24.02;;;16.90;;
52764;SDS011;38650;44.536;18.664;2024-01-11T12:32:59;28.27;;;19.50;;
52764;SDS011;38650;44.536;18.664;2024-01-11T12:35:29;25.90;;;18.48;;
52764;SDS011;38650;44.536;18.664;2024-01-11T12:38:05;38.60;;;25.63;;
52764;SDS011;38650;44.536;18.664;2024-01-11T12:40:34;29.42;;;21.80;;
52764;SDS011;38650;44.536;18.664;2024-01-11T12:43:02;46.85;;;29.27;;
52764;SDS011;38650;44.536;18.664;2024-01-11T12:45:32;31.95;;;23.73;;
52764;SDS011;38650;44.536;18.664;2024-01-11T12:48:00;36.40;;;24.40;;
52764;SDS011;38650;44.536;18.664;2024-01-11T12:50:26;39.60;;;26.73;;
52764;SDS011;38650;44.536;18.664;2024-01-11T12:53:08;32.83;;;22.88;;
52764;SDS011;38650;44.536;18.664;2024-01-11T12:55:37;31.50;;;22.27;;
52764;SDS011;38650;44.536;18.664;2024-01-11T12:58:04;34.72;;;22.98;;
52764;SDS011;38650;44.536;18.664;2024-01-11T13:00:30;26.35;;;19.10;;
52764;SDS011;38650;44.536;18.664;2024-01-11T13:02:56;26.35;;;18.15;;
52764;SDS011;38650;44.536;18.664;2024-01-11T13:05:22;26.15;;;18.80;;
52764;SDS011;38650;44.536;18.664;2024-01-11T13:07:48;26.35;;;18.27;;
52764;SDS011;38650;44.536;18.664;2024-01-11T13:10:14;33.85;;;22.45;;
52764;SDS011;38650;44.536;18.664;2024-01-11T13:12:39;31.92;;;22.25;;
52764;SDS011;38650;44.536;18.664;2024-01-11T13:15:05;39.00;;;25.75;;
52764;SDS011;38650;44.536;18.664;2024-01-11T13:17:31;33.63;;;23.20;;
52764;SDS011;38650;44.536;18.664;2024-01-11T13:19:57;29.70;;;20.95;;
52764;SDS011;38650;44.536;18.664;2024-01-11T13:22:24;28.80;;;19.67;;
52764;SDS011;38650;44.536;18.664;2024-01-11T13:24:50;27.17;;;18.25;;
52764;SDS011;38650;44.536;18.664;2024-01-11T13:27:15;26.38;;;19.50;;
52764;SDS011;38650;44.536;18.664;2024-01-11T13:29:41;35.75;;;24.17;;
52764;SDS011;38650;44.536;18.664;2024-01-11T13:32:07;37.83;;;24.27;;
52764;SDS011;38650;44.536;18.664;2024-01-11T13:34:32;33.50;;;22.13;;
52764;SDS011;38650;44.536;18.664;2024-01-11T13:36:58;28.80;;;19.95;;
52764;SDS011;38650;44.536;18.664;2024-01-11T13:39:24;30.65;;;20.45;;
52764;SDS011;38650;44.536;18.664;2024-01-11T13:41:50;34.92;;;22.05;;
52764;SDS011;38650;44.536;18.664;2024-01-11T13:44:16;31.92;;;20.38;;
52764;SDS011;38650;44.536;18.664;2024-01-11T13:46:42;32.30;;;21.13;;
52764;SDS011;38650;44.536;18.664;2024-01-11T13:49:08;32.08;;;21.08;;
52764;SDS011;38650;44.536;18.664;2024-01-11T13:51:35;25.73;;;17.17;;
52764;SDS011;38650;44.536;18.664;2024-01-11T13:54:02;31.27;;;20.00;;
52764;SDS011;38650;44.536;18.664;2024-01-11T13:56:28;36.92;;;22.50;;
52764;SDS011;38650;44.536;18.664;2024-01-11T13:58:54;34.60;;;22.63;;
52764;SDS011;38650;44.536;18.664;2024-01-11T14:01:20;34.35;;;21.17;;
52764;SDS011;38650;44.536;18.664;2024-01-11T14:03:46;35.30;;;20.80;;
52764;SDS011;38650;44.536;18.664;2024-01-11T14:06:12;30.75;;;19.15;;